Terminal Aerodrome Forecast
Issued by NWS Northern Indiana

Home | Current Version | Previous Version | Text Only | Print | Product List | Glossary Off
Versions: 1 2 3 4 5 6 7 8 9 10 11 12 13 14 15 16 17 18 19 20 21

000
FTUS43 KIWX 181720
TAFFWA
TAF
KFWA 181720Z 1818/1918 02004KT P6SM BKN030
     FM181900 04005KT P6SM SCT035 SCT150
     FM190700 08003KT 4SM BR VCSH BKN020
     FM191000 10004KT 2SM -SHRA BR OVC008
     FM191600 VRB04KT 5SM BR VCSH BKN015=

USA.gov is the U.S. government's official web portal to all federal, state and local government web resources and services.